Overview Statistics Trail Chart Weather Telemetry Raw packets
 

This is the latest recevied weather packets stored in our database for station/object DB7GV-8. If no packets are shown the sender has not sent any weather packets the latest 10 day(s).

<< 23 24 25 26 27 28 29 >>
Time Temp. Humidity Pressure Rain* Wind** Luminosity Snow
1777163531 6.11° C 66% 1020.7 hPa - - - -
1777162624 6.11° C 65% 1020.6 hPa - - - -
1777161719 6.11° C 65% 1020.7 hPa - - - -
1777160814 6.67° C 64% 1020.6 hPa - - - -
1777159909 6.67° C 64% 1020.6 hPa - - - -
1777159003 6.67° C 63% 1020.4 hPa - - - -
1777157192 7.22° C 62% 1020.5 hPa - - - -
1777156287 7.78° C 61% 1020.4 hPa - - - -
1777155381 7.78° C 61% 1020.3 hPa - - - -
1777154476 7.78° C 61% 1020.2 hPa - - - -
1777153571 8.33° C 60% 1020.1 hPa - - - -
1777152666 8.89° C 59% 1019.9 hPa - - - -
1777151760 8.89° C 58% 1019.8 hPa - - - -
1777150855 9.44° C 58% 1019.7 hPa - - - -
1777149949 9.44° C 57% 1019.6 hPa - - - -
1777149043 10.56° C 55% 1019.4 hPa - - - -
1777148138 11.11° C 53% 1019.4 hPa - - - -
1777147233 11.11° C 53% 1019.2 hPa - - - -
1777146327 11.67° C 52% 1018.9 hPa - - - -
1777145422 12.22° C 50% 1018.7 hPa - - - -
1777144516 13.33° C 48% 1018.5 hPa - - - -
1777141801 15° C 43% 1017.8 hPa - - - -
1777140895 16.11° C 41% 1017.5 hPa - - - -
1777139989 16.67° C 39% 1017.2 hPa - - - -
1777139084 17.78° C 36% 1017 hPa - - - -

* Rain since midnight (hover to see other rain measurements)
** Current wind speed in m/s (hover to see current wind gust speed)